»·PEaware :: N8735K KSAN-KWJF

N8735K :: KSAN-KWJF

FLIGHT INFORMATION

Flight Status: Arrived
Operator: Privately registered:
United States
More flights under this callsign
Pilot: Jeff K. (12978)
Aircraft: Unknown
(F33A)
More flights by this aircraft type
Origin: KSAN San Diego Intl-Lindbergh
United States
Destination: KWJF Gen Fox
United States
More flights between these airports :: More routes between these airports
Route: +OCN V23 SLI V459 BERRI V201 PMD KWJF RNAV RWY 24
File this flight plan on PilotEdge
Remarks:
Altitude:
(Current/Filed)
10,000ft
Speed:
(Current/Filed)
140kts
Departed: 16-Jan-18 08:15 PM
Arrived: 16-Jan-18 09:30 PM
Distance/Time
Traveled:
131nm/1:15
Distance/Time
To Go:
Arrived

Flight Plot

Page will automatically refresh every two minutes.

Flight plan parsing failed; only flown route is shown


Map Options




Map Legend


Flown Route
Filed Route
Departure Airport
Arrival Airport
Navaid (VOR, NDB)
Fix

Horizontal Profiles

Position Reports

Time Latitude Longitude Heading Altitude Ground
Speed
16-Jan-18 20:08 32.732420 -117.176641 194 22ft 0kts
16-Jan-18 20:09 32.732420 -117.176641 194 22ft 0kts
16-Jan-18 20:10 32.732420 -117.176641 194 22ft 0kts
16-Jan-18 20:11 32.732420 -117.176641 194 22ft 0kts
16-Jan-18 20:12 32.732420 -117.176641 194 22ft 0kts
16-Jan-18 20:13 32.732420 -117.176641 194 22ft 0kts
16-Jan-18 20:14 32.732420 -117.176641 194 22ft 0kts
16-Jan-18 20:15 32.732420 -117.176641 194 22ft 0kts
16-Jan-18 20:16 32.732420 -117.176641 194 22ft 0kts
16-Jan-18 20:17 32.732420 -117.176641 194 22ft 0kts
16-Jan-18 20:18 32.732420 -117.176641 194 22ft 0kts
16-Jan-18 20:19 32.731156 -117.175773 125 21ft 7kts
16-Jan-18 20:20 32.731019 -117.175576 133 21ft 0kts
16-Jan-18 20:21 32.731732 -117.181867 285 91ft 77kts
16-Jan-18 20:22 32.747462 -117.208957 321 1258ft 114kts
16-Jan-18 20:23 32.774307 -117.230816 322 2037ft 126kts
16-Jan-18 20:24 32.806243 -117.256759 321 2010ft 148kts
16-Jan-18 20:25 32.840089 -117.284242 321 2235ft 136kts
16-Jan-18 20:26 32.869058 -117.308487 322 3087ft 123kts
16-Jan-18 20:27 32.897457 -117.331241 322 3923ft 124kts
16-Jan-18 20:28 32.925808 -117.354738 321 4784ft 125kts
16-Jan-18 20:29 32.954595 -117.378597 321 5587ft 126kts
16-Jan-18 20:30 32.986311 -117.396601 344 6329ft 130kts
16-Jan-18 20:31 33.022265 -117.403439 348 7096ft 126kts
16-Jan-18 20:32 33.056623 -117.406405 354 7853ft 124kts
16-Jan-18 20:33 33.092467 -117.407276 354 8465ft 127kts
16-Jan-18 20:34 33.126031 -117.410245 350 9124ft 124kts
16-Jan-18 20:35 33.159737 -117.412621 353 9799ft 121kts
16-Jan-18 20:36 33.195769 -117.415985 356 10007ft 148kts
16-Jan-18 20:37 33.238273 -117.414548 0 10000ft 156kts
16-Jan-18 20:38 33.270268 -117.443949 309 9999ft 152kts
16-Jan-18 20:39 33.299059 -117.481233 312 9999ft 153kts
16-Jan-18 20:40 33.329089 -117.517601 313 9998ft 154kts
16-Jan-18 20:41 33.359681 -117.553634 313 9998ft 154kts
16-Jan-18 20:42 33.390365 -117.589398 314 9998ft 154kts
16-Jan-18 20:43 33.420886 -117.624852 314 9998ft 154kts
16-Jan-18 20:44 33.451431 -117.660550 312 10000ft 154kts
16-Jan-18 20:45 33.481602 -117.696194 313 10000ft 154kts
16-Jan-18 20:46 33.511890 -117.731609 314 10000ft 154kts
16-Jan-18 20:47 33.546969 -117.761929 322 10000ft 155kts
16-Jan-18 20:48 33.582125 -117.791618 322 10000ft 154kts
16-Jan-18 20:49 33.615390 -117.823588 318 10000ft 154kts
16-Jan-18 20:50 33.650602 -117.853556 322 10000ft 154kts
16-Jan-18 20:51 33.685835 -117.883299 322 10000ft 154kts
16-Jan-18 20:52 33.713124 -117.921158 299 10000ft 152kts
16-Jan-18 20:53 33.734444 -117.964362 299 10012ft 151kts
16-Jan-18 20:54 33.756372 -118.008763 299 10000ft 152kts
16-Jan-18 20:55 33.777903 -118.052353 299 9999ft 152kts
16-Jan-18 20:56 33.814332 -118.076503 338 9999ft 156kts
16-Jan-18 20:57 33.853922 -118.095924 331 9999ft 155kts
16-Jan-18 20:58 33.893019 -118.118792 331 9999ft 155kts
16-Jan-18 20:59 33.931856 -118.140936 330 10001ft 155kts
16-Jan-18 21:00 33.970574 -118.162696 338 9899ft 165kts
16-Jan-18 21:01 34.012517 -118.174762 351 9999ft 159kts
16-Jan-18 21:02 34.048510 -118.201557 323 9999ft 154kts
16-Jan-18 21:03 34.084914 -118.228301 328 9999ft 155kts
16-Jan-18 21:04 34.122156 -118.252214 330 9999ft 155kts
16-Jan-18 21:05 34.160467 -118.275569 330 9999ft 155kts
16-Jan-18 21:06 34.199950 -118.296467 338 9998ft 156kts
16-Jan-18 21:07 34.222392 -118.307935 356 9998ft 159kts
16-Jan-18 21:10 34.312109 -118.238562 25 9999ft 162kts
16-Jan-18 21:11 34.351848 -118.213512 22 9999ft 161kts
16-Jan-18 21:12 34.392875 -118.192483 18 9999ft 160kts
16-Jan-18 21:13 34.433719 -118.172391 18 9999ft 159kts
16-Jan-18 21:14 34.470700 -118.154195 18 9995ft 151kts
16-Jan-18 21:15 34.501410 -118.138934 18 10000ft 154kts
16-Jan-18 21:16 34.528957 -118.086053 72 9997ft 149kts
16-Jan-18 21:17 34.540488 -118.036937 72 9671ft 164kts
16-Jan-18 21:18 34.554192 -117.979823 72 8711ft 179kts
16-Jan-18 21:19 34.568027 -117.922068 72 7597ft 176kts
16-Jan-18 21:20 34.581532 -117.865343 72 6500ft 175kts
16-Jan-18 21:21 34.594092 -117.811687 72 6008ft 150kts
16-Jan-18 21:22 34.605494 -117.762047 72 6013ft 159kts
16-Jan-18 21:23 34.632314 -117.720339 28 6012ft 160kts
16-Jan-18 21:24 34.666105 -117.733826 289 6050ft 145kts
16-Jan-18 21:25 34.669652 -117.782189 294 6054ft 147kts
16-Jan-18 21:26 34.686876 -117.827345 292 6074ft 147kts
16-Jan-18 21:27 34.702262 -117.873833 290 6036ft 150kts
16-Jan-18 21:28 34.719347 -117.919254 294 6078ft 148kts
16-Jan-18 21:29 34.731722 -117.967295 280 5941ft 149kts
16-Jan-18 21:30 34.737151 -118.017714 276 5302ft 150kts
16-Jan-18 21:31 34.740558 -118.065059 275 4563ft 130kts
16-Jan-18 21:32 34.744647 -118.106972 277 3896ft 125kts
16-Jan-18 21:33 34.748719 -118.145711 283 3164ft 95kts
16-Jan-18 21:34 34.752056 -118.177013 255 2757ft 94kts
16-Jan-18 21:35 34.744301 -118.206542 255 2404ft 87kts
16-Jan-18 21:36 34.740631 -118.218157 199 2343ft 15kts

Navigation Log

Ident Type
Flight plan parsing failed, navigation log unavailable